sensor_id;sensor_type;location;lat;lon;timestamp;P1;durP1;ratioP1;P2;durP2;ratioP2
1775;SDS011;885;42.626;23.200;2023-07-08T00:00:19;19.60;;;17.37;;
1775;SDS011;885;42.626;23.200;2023-07-08T00:02:47;21.53;;;17.03;;
1775;SDS011;885;42.626;23.200;2023-07-08T00:05:14;19.77;;;17.77;;
1775;SDS011;885;42.626;23.200;2023-07-08T00:07:45;18.20;;;16.17;;
1775;SDS011;885;42.626;23.200;2023-07-08T00:10:13;20.67;;;17.37;;
1775;SDS011;885;42.626;23.200;2023-07-08T00:12:41;20.50;;;17.07;;
1775;SDS011;885;42.626;23.200;2023-07-08T00:15:10;19.87;;;17.57;;
1775;SDS011;885;42.626;23.200;2023-07-08T00:17:37;22.60;;;18.77;;
1775;SDS011;885;42.626;23.200;2023-07-08T00:20:11;19.80;;;17.80;;
1775;SDS011;885;42.626;23.200;2023-07-08T00:22:40;20.70;;;18.50;;
1775;SDS011;885;42.626;23.200;2023-07-08T00:25:09;20.03;;;17.70;;
1775;SDS011;885;42.626;23.200;2023-07-08T00:27:36;20.50;;;18.30;;
1775;SDS011;885;42.626;23.200;2023-07-08T00:30:09;22.00;;;19.70;;
1775;SDS011;885;42.626;23.200;2023-07-08T00:32:43;21.23;;;18.93;;
1775;SDS011;885;42.626;23.200;2023-07-08T00:35:10;21.03;;;18.00;;
1775;SDS011;885;42.626;23.200;2023-07-08T00:37:37;20.13;;;18.03;;
1775;SDS011;885;42.626;23.200;2023-07-08T00:40:13;21.57;;;17.80;;
1775;SDS011;885;42.626;23.200;2023-07-08T00:42:42;20.23;;;18.20;;
1775;SDS011;885;42.626;23.200;2023-07-08T00:45:15;19.20;;;17.30;;
1775;SDS011;885;42.626;23.200;2023-07-08T00:47:45;19.57;;;17.57;;
1775;SDS011;885;42.626;23.200;2023-07-08T00:50:15;19.97;;;17.70;;
1775;SDS011;885;42.626;23.200;2023-07-08T00:52:42;20.60;;;18.37;;
1775;SDS011;885;42.626;23.200;2023-07-08T00:55:10;21.40;;;18.07;;
1775;SDS011;885;42.626;23.200;2023-07-08T00:57:39;20.90;;;18.67;;
1775;SDS011;885;42.626;23.200;2023-07-08T01:00:10;22.37;;;20.17;;
1775;SDS011;885;42.626;23.200;2023-07-08T01:02:41;21.70;;;18.47;;
1775;SDS011;885;42.626;23.200;2023-07-08T01:05:13;21.13;;;18.90;;
1775;SDS011;885;42.626;23.200;2023-07-08T01:07:44;21.13;;;18.93;;
1775;SDS011;885;42.626;23.200;2023-07-08T01:10:17;22.67;;;17.53;;
1775;SDS011;885;42.626;23.200;2023-07-08T01:12:51;20.93;;;18.80;;
1775;SDS011;885;42.626;23.200;2023-07-08T01:15:21;18.63;;;16.83;;
1775;SDS011;885;42.626;23.200;2023-07-08T01:17:53;22.43;;;20.03;;
1775;SDS011;885;42.626;23.200;2023-07-08T01:20:21;21.40;;;19.10;;
1775;SDS011;885;42.626;23.200;2023-07-08T01:22:49;20.20;;;18.30;;
1775;SDS011;885;42.626;23.200;2023-07-08T01:25:16;21.90;;;19.50;;
1775;SDS011;885;42.626;23.200;2023-07-08T01:27:43;18.47;;;16.63;;
1775;SDS011;885;42.626;23.200;2023-07-08T01:30:14;19.30;;;17.57;;
1775;SDS011;885;42.626;23.200;2023-07-08T01:32:44;20.53;;;18.33;;
1775;SDS011;885;42.626;23.200;2023-07-08T01:35:13;20.60;;;18.47;;
1775;SDS011;885;42.626;23.200;2023-07-08T01:37:42;18.03;;;16.23;;
1775;SDS011;885;42.626;23.200;2023-07-08T01:40:16;19.47;;;17.47;;
1775;SDS011;885;42.626;23.200;2023-07-08T01:42:50;18.87;;;17.10;;
1775;SDS011;885;42.626;23.200;2023-07-08T01:45:18;21.53;;;18.60;;
1775;SDS011;885;42.626;23.200;2023-07-08T01:47:48;18.97;;;17.17;;
1775;SDS011;885;42.626;23.200;2023-07-08T01:50:18;19.47;;;17.50;;
1775;SDS011;885;42.626;23.200;2023-07-08T01:52:47;18.37;;;16.47;;
1775;SDS011;885;42.626;23.200;2023-07-08T01:55:14;20.00;;;17.90;;
1775;SDS011;885;42.626;23.200;2023-07-08T01:57:42;18.30;;;16.57;;
1775;SDS011;885;42.626;23.200;2023-07-08T02:00:10;18.80;;;17.03;;
1775;SDS011;885;42.626;23.200;2023-07-08T02:02:38;23.40;;;21.00;;
1775;SDS011;885;42.626;23.200;2023-07-08T02:05:04;19.93;;;18.07;;
1775;SDS011;885;42.626;23.200;2023-07-08T02:07:31;21.87;;;18.00;;
1775;SDS011;885;42.626;23.200;2023-07-08T02:09:58;19.53;;;17.43;;
1775;SDS011;885;42.626;23.200;2023-07-08T02:12:25;18.87;;;17.00;;
1775;SDS011;885;42.626;23.200;2023-07-08T02:14:53;20.53;;;18.33;;
1775;SDS011;885;42.626;23.200;2023-07-08T02:17:20;20.57;;;18.47;;
1775;SDS011;885;42.626;23.200;2023-07-08T02:19:47;18.50;;;16.80;;
1775;SDS011;885;42.626;23.200;2023-07-08T02:22:13;18.83;;;16.93;;
1775;SDS011;885;42.626;23.200;2023-07-08T02:24:40;18.10;;;16.27;;
1775;SDS011;885;42.626;23.200;2023-07-08T02:27:07;17.50;;;15.80;;
1775;SDS011;885;42.626;23.200;2023-07-08T02:29:34;18.63;;;16.83;;
1775;SDS011;885;42.626;23.200;2023-07-08T02:32:04;17.30;;;15.40;;
1775;SDS011;885;42.626;23.200;2023-07-08T02:34:34;18.27;;;16.57;;
1775;SDS011;885;42.626;23.200;2023-07-08T02:37:01;19.03;;;17.10;;
1775;SDS011;885;42.626;23.200;2023-07-08T02:39:28;18.97;;;16.97;;
1775;SDS011;885;42.626;23.200;2023-07-08T02:41:55;18.83;;;16.97;;
1775;SDS011;885;42.626;23.200;2023-07-08T02:44:22;17.50;;;15.90;;
1775;SDS011;885;42.626;23.200;2023-07-08T02:46:49;18.60;;;16.87;;
1775;SDS011;885;42.626;23.200;2023-07-08T02:49:17;19.13;;;17.20;;
1775;SDS011;885;42.626;23.200;2023-07-08T02:51:44;17.63;;;15.77;;
1775;SDS011;885;42.626;23.200;2023-07-08T02:54:11;17.00;;;15.43;;
1775;SDS011;885;42.626;23.200;2023-07-08T02:56:37;16.67;;;14.90;;
1775;SDS011;885;42.626;23.200;2023-07-08T02:59:04;17.87;;;16.27;;
1775;SDS011;885;42.626;23.200;2023-07-08T03:01:31;17.57;;;15.77;;
1775;SDS011;885;42.626;23.200;2023-07-08T03:03:59;16.77;;;15.27;;
1775;SDS011;885;42.626;23.200;2023-07-08T03:06:27;16.90;;;14.60;;
1775;SDS011;885;42.626;23.200;2023-07-08T03:08:54;16.07;;;14.60;;
1775;SDS011;885;42.626;23.200;2023-07-08T03:11:21;17.63;;;16.10;;
1775;SDS011;885;42.626;23.200;2023-07-08T03:13:47;15.57;;;14.10;;
1775;SDS011;885;42.626;23.200;2023-07-08T03:16:14;16.37;;;14.70;;
1775;SDS011;885;42.626;23.200;2023-07-08T03:18:41;17.30;;;15.70;;
1775;SDS011;885;42.626;23.200;2023-07-08T03:21:12;14.90;;;13.50;;
1775;SDS011;885;42.626;23.200;2023-07-08T03:23:41;15.57;;;14.13;;
1775;SDS011;885;42.626;23.200;2023-07-08T03:26:09;15.47;;;14.17;;
1775;SDS011;885;42.626;23.200;2023-07-08T03:28:40;15.00;;;13.53;;
1775;SDS011;885;42.626;23.200;2023-07-08T03:31:07;16.13;;;13.23;;
1775;SDS011;885;42.626;23.200;2023-07-08T03:33:35;14.00;;;12.60;;
1775;SDS011;885;42.626;23.200;2023-07-08T03:36:02;14.53;;;13.23;;
1775;SDS011;885;42.626;23.200;2023-07-08T03:38:30;14.27;;;12.87;;
1775;SDS011;885;42.626;23.200;2023-07-08T03:40:58;12.77;;;11.63;;
1775;SDS011;885;42.626;23.200;2023-07-08T03:43:25;14.30;;;12.20;;
1775;SDS011;885;42.626;23.200;2023-07-08T03:45:51;13.17;;;11.80;;
1775;SDS011;885;42.626;23.200;2023-07-08T03:48:18;13.03;;;11.83;;
1775;SDS011;885;42.626;23.200;2023-07-08T03:50:45;13.77;;;12.47;;
1775;SDS011;885;42.626;23.200;2023-07-08T03:53:12;12.87;;;11.67;;
1775;SDS011;885;42.626;23.200;2023-07-08T03:55:39;13.30;;;12.00;;
1775;SDS011;885;42.626;23.200;2023-07-08T03:58:07;11.60;;;10.60;;
1775;SDS011;885;42.626;23.200;2023-07-08T04:00:34;12.90;;;11.60;;
1775;SDS011;885;42.626;23.200;2023-07-08T04:03:01;12.87;;;11.57;;
1775;SDS011;885;42.626;23.200;2023-07-08T04:05:28;12.10;;;10.80;;
1775;SDS011;885;42.626;23.200;2023-07-08T04:07:55;11.70;;;10.50;;
1775;SDS011;885;42.626;23.200;2023-07-08T04:10:22;11.53;;;10.43;;
1775;SDS011;885;42.626;23.200;2023-07-08T04:12:48;13.03;;;10.07;;
1775;SDS011;885;42.626;23.200;2023-07-08T04:15:17;12.87;;;11.67;;
1775;SDS011;885;42.626;23.200;2023-07-08T04:17:44;12.37;;;11.17;;
1775;SDS011;885;42.626;23.200;2023-07-08T04:20:14;16.33;;;13.00;;
1775;SDS011;885;42.626;23.200;2023-07-08T04:22:43;11.60;;;10.40;;
1775;SDS011;885;42.626;23.200;2023-07-08T04:25:11;12.00;;;10.90;;
1775;SDS011;885;42.626;23.200;2023-07-08T04:27:39;11.73;;;10.53;;
1775;SDS011;885;42.626;23.200;2023-07-08T04:30:07;12.37;;;11.17;;
1775;SDS011;885;42.626;23.200;2023-07-08T04:32:42;13.63;;;11.97;;
1775;SDS011;885;42.626;23.200;2023-07-08T04:35:09;13.10;;;10.73;;
1775;SDS011;885;42.626;23.200;2023-07-08T04:37:36;15.07;;;13.77;;
1775;SDS011;885;42.626;23.200;2023-07-08T04:40:03;15.87;;;14.40;;
1775;SDS011;885;42.626;23.200;2023-07-08T04:42:33;16.73;;;14.90;;
1775;SDS011;885;42.626;23.200;2023-07-08T04:44:59;13.97;;;12.57;;
1775;SDS011;885;42.626;23.200;2023-07-08T04:47:29;12.47;;;11.17;;
1775;SDS011;885;42.626;23.200;2023-07-08T04:49:59;12.67;;;10.33;;
1775;SDS011;885;42.626;23.200;2023-07-08T04:52:26;12.33;;;11.07;;
1775;SDS011;885;42.626;23.200;2023-07-08T04:54:53;11.80;;;10.83;;
1775;SDS011;885;42.626;23.200;2023-07-08T04:57:20;16.07;;;12.20;;
1775;SDS011;885;42.626;23.200;2023-07-08T04:59:46;12.10;;;10.90;;
1775;SDS011;885;42.626;23.200;2023-07-08T05:02:13;11.90;;;10.37;;
1775;SDS011;885;42.626;23.200;2023-07-08T05:04:40;12.60;;;11.30;;
1775;SDS011;885;42.626;23.200;2023-07-08T05:07:08;11.47;;;10.37;;
1775;SDS011;885;42.626;23.200;2023-07-08T05:09:35;11.20;;;10.20;;
1775;SDS011;885;42.626;23.200;2023-07-08T05:12:02;11.30;;;10.30;;
1775;SDS011;885;42.626;23.200;2023-07-08T05:14:29;11.83;;;10.63;;
1775;SDS011;885;42.626;23.200;2023-07-08T05:16:56;11.17;;;10.17;;
1775;SDS011;885;42.626;23.200;2023-07-08T05:19:23;10.60;;;9.60;;
1775;SDS011;885;42.626;23.200;2023-07-08T05:21:50;11.17;;;9.97;;
1775;SDS011;885;42.626;23.200;2023-07-08T05:24:20;11.07;;;10.07;;
1775;SDS011;885;42.626;23.200;2023-07-08T05:26:46;11.07;;;10.00;;
1775;SDS011;885;42.626;23.200;2023-07-08T05:29:13;11.17;;;9.30;;
1775;SDS011;885;42.626;23.200;2023-07-08T05:31:40;11.40;;;10.17;;
1775;SDS011;885;42.626;23.200;2023-07-08T05:34:07;11.10;;;10.10;;
1775;SDS011;885;42.626;23.200;2023-07-08T05:36:34;10.50;;;9.57;;
1775;SDS011;885;42.626;23.200;2023-07-08T05:39:00;11.27;;;10.20;;
1775;SDS011;885;42.626;23.200;2023-07-08T05:41:29;10.83;;;9.83;;
1775;SDS011;885;42.626;23.200;2023-07-08T05:43:55;9.37;;;8.57;;
1775;SDS011;885;42.626;23.200;2023-07-08T05:46:22;10.53;;;9.43;;
1775;SDS011;885;42.626;23.200;2023-07-08T05:48:49;15.33;;;13.90;;
1775;SDS011;885;42.626;23.200;2023-07-08T05:51:17;13.63;;;12.20;;
1775;SDS011;885;42.626;23.200;2023-07-08T05:53:43;13.40;;;12.20;;
1775;SDS011;885;42.626;23.200;2023-07-08T05:56:10;14.10;;;12.70;;
1775;SDS011;885;42.626;23.200;2023-07-08T05:58:38;13.83;;;12.53;;
1775;SDS011;885;42.626;23.200;2023-07-08T06:01:05;14.40;;;12.87;;
1775;SDS011;885;42.626;23.200;2023-07-08T06:03:32;15.03;;;13.03;;
1775;SDS011;885;42.626;23.200;2023-07-08T06:05:59;13.00;;;11.13;;
1775;SDS011;885;42.626;23.200;2023-07-08T06:08:26;13.00;;;11.70;;
1775;SDS011;885;42.626;23.200;2023-07-08T06:10:53;11.83;;;10.83;;
1775;SDS011;885;42.626;23.200;2023-07-08T06:13:20;13.73;;;12.40;;
1775;SDS011;885;42.626;23.200;2023-07-08T06:15:48;13.67;;;11.47;;
1775;SDS011;885;42.626;23.200;2023-07-08T06:18:15;13.10;;;11.80;;
1775;SDS011;885;42.626;23.200;2023-07-08T06:20:50;13.40;;;12.10;;
1775;SDS011;885;42.626;23.200;2023-07-08T06:23:17;14.50;;;11.50;;
1775;SDS011;885;42.626;23.200;2023-07-08T06:25:44;14.10;;;12.50;;
1775;SDS011;885;42.626;23.200;2023-07-08T06:28:11;12.83;;;11.63;;
1775;SDS011;885;42.626;23.200;2023-07-08T06:30:38;14.17;;;12.83;;
1775;SDS011;885;42.626;23.200;2023-07-08T06:33:06;14.37;;;13.07;;
1775;SDS011;885;42.626;23.200;2023-07-08T06:35:33;14.23;;;12.80;;
1775;SDS011;885;42.626;23.200;2023-07-08T06:38:00;12.07;;;10.97;;
1775;SDS011;885;42.626;23.200;2023-07-08T06:40:27;13.80;;;12.33;;
1775;SDS011;885;42.626;23.200;2023-07-08T06:42:54;13.50;;;12.13;;
1775;SDS011;885;42.626;23.200;2023-07-08T06:45:21;11.40;;;10.20;;
1775;SDS011;885;42.626;23.200;2023-07-08T06:47:48;12.10;;;10.30;;
1775;SDS011;885;42.626;23.200;2023-07-08T06:50:16;10.17;;;9.27;;
1775;SDS011;885;42.626;23.200;2023-07-08T06:52:43;10.70;;;9.70;;
1775;SDS011;885;42.626;23.200;2023-07-08T06:55:10;12.07;;;10.40;;
1775;SDS011;885;42.626;23.200;2023-07-08T06:57:37;11.30;;;10.20;;
1775;SDS011;885;42.626;23.200;2023-07-08T07:00:05;10.47;;;9.53;;
1775;SDS011;885;42.626;23.200;2023-07-08T07:02:33;11.63;;;10.43;;
1775;SDS011;885;42.626;23.200;2023-07-08T07:05:00;9.23;;;8.33;;
1775;SDS011;885;42.626;23.200;2023-07-08T07:07:28;15.53;;;8.83;;
1775;SDS011;885;42.626;23.200;2023-07-08T07:09:55;9.13;;;8.27;;
1775;SDS011;885;42.626;23.200;2023-07-08T07:12:23;10.30;;;8.47;;
1775;SDS011;885;42.626;23.200;2023-07-08T07:14:50;10.67;;;8.03;;
1775;SDS011;885;42.626;23.200;2023-07-08T07:17:18;10.33;;;9.03;;
1775;SDS011;885;42.626;23.200;2023-07-08T07:19:45;9.90;;;8.00;;
1775;SDS011;885;42.626;23.200;2023-07-08T07:22:11;8.50;;;7.63;;
1775;SDS011;885;42.626;23.200;2023-07-08T07:24:40;9.37;;;8.40;;
1775;SDS011;885;42.626;23.200;2023-07-08T07:27:07;13.97;;;11.03;;
1775;SDS011;885;42.626;23.200;2023-07-08T07:29:40;9.30;;;8.40;;
1775;SDS011;885;42.626;23.200;2023-07-08T07:32:08;8.80;;;7.30;;
1775;SDS011;885;42.626;23.200;2023-07-08T07:34:35;9.97;;;7.80;;
1775;SDS011;885;42.626;23.200;2023-07-08T07:37:03;9.83;;;7.77;;
1775;SDS011;885;42.626;23.200;2023-07-08T07:39:30;8.70;;;7.17;;
1775;SDS011;885;42.626;23.200;2023-07-08T07:41:58;8.80;;;7.90;;
1775;SDS011;885;42.626;23.200;2023-07-08T07:44:25;7.70;;;7.00;;
1775;SDS011;885;42.626;23.200;2023-07-08T07:46:52;8.80;;;7.90;;
1775;SDS011;885;42.626;23.200;2023-07-08T07:49:19;9.53;;;7.60;;
1775;SDS011;885;42.626;23.200;2023-07-08T07:51:46;8.50;;;7.70;;
1775;SDS011;885;42.626;23.200;2023-07-08T07:54:13;7.20;;;6.50;;
1775;SDS011;885;42.626;23.200;2023-07-08T07:56:40;7.07;;;6.37;;
1775;SDS011;885;42.626;23.200;2023-07-08T07:59:09;8.33;;;7.53;;
1775;SDS011;885;42.626;23.200;2023-07-08T08:01:36;6.90;;;6.20;;
1775;SDS011;885;42.626;23.200;2023-07-08T08:04:03;7.20;;;5.90;;
1775;SDS011;885;42.626;23.200;2023-07-08T08:06:30;7.17;;;6.57;;
1775;SDS011;885;42.626;23.200;2023-07-08T08:08:57;8.53;;;6.70;;
1775;SDS011;885;42.626;23.200;2023-07-08T08:11:23;7.47;;;6.77;;
1775;SDS011;885;42.626;23.200;2023-07-08T08:13:51;6.77;;;6.13;;
1775;SDS011;885;42.626;23.200;2023-07-08T08:16:19;7.07;;;6.30;;
1775;SDS011;885;42.626;23.200;2023-07-08T08:18:46;9.00;;;6.53;;
1775;SDS011;885;42.626;23.200;2023-07-08T08:21:13;6.57;;;5.97;;
1775;SDS011;885;42.626;23.200;2023-07-08T08:23:40;7.90;;;6.93;;
1775;SDS011;885;42.626;23.200;2023-07-08T08:26:07;7.80;;;6.93;;
1775;SDS011;885;42.626;23.200;2023-07-08T08:28:34;6.80;;;6.20;;
1775;SDS011;885;42.626;23.200;2023-07-08T08:31:01;8.20;;;6.60;;
1775;SDS011;885;42.626;23.200;2023-07-08T08:33:29;6.80;;;6.20;;
1775;SDS011;885;42.626;23.200;2023-07-08T08:35:56;6.43;;;5.83;;
1775;SDS011;885;42.626;23.200;2023-07-08T08:38:23;7.20;;;6.13;;
1775;SDS011;885;42.626;23.200;2023-07-08T08:40:50;6.57;;;5.90;;
1775;SDS011;885;42.626;23.200;2023-07-08T08:43:18;6.67;;;6.07;;
1775;SDS011;885;42.626;23.200;2023-07-08T08:45:50;6.60;;;6.00;;
1775;SDS011;885;42.626;23.200;2023-07-08T08:48:23;7.70;;;7.00;;
1775;SDS011;885;42.626;23.200;2023-07-08T08:50:55;6.90;;;6.30;;
1775;SDS011;885;42.626;23.200;2023-07-08T08:53:26;7.17;;;6.50;;
1775;SDS011;885;42.626;23.200;2023-07-08T08:55:55;7.70;;;6.10;;
1775;SDS011;885;42.626;23.200;2023-07-08T08:58:32;6.97;;;6.27;;
1775;SDS011;885;42.626;23.200;2023-07-08T09:01:07;6.90;;;5.90;;
1775;SDS011;885;42.626;23.200;2023-07-08T09:03:39;5.70;;;5.10;;
1775;SDS011;885;42.626;23.200;2023-07-08T09:06:11;5.80;;;5.30;;
1775;SDS011;885;42.626;23.200;2023-07-08T09:08:40;7.50;;;5.90;;
1775;SDS011;885;42.626;23.200;2023-07-08T09:11:11;6.60;;;6.00;;
1775;SDS011;885;42.626;23.200;2023-07-08T09:13:44;7.33;;;6.10;;
1775;SDS011;885;42.626;23.200;2023-07-08T09:16:14;5.97;;;5.37;;
1775;SDS011;885;42.626;23.200;2023-07-08T09:18:47;5.87;;;5.37;;
1775;SDS011;885;42.626;23.200;2023-07-08T09:21:28;6.10;;;4.80;;
1775;SDS011;885;42.626;23.200;2023-07-08T09:23:59;6.70;;;6.10;;
1775;SDS011;885;42.626;23.200;2023-07-08T09:26:33;6.53;;;5.93;;
1775;SDS011;885;42.626;23.200;2023-07-08T09:29:01;7.80;;;6.00;;
1775;SDS011;885;42.626;23.200;2023-07-08T09:31:36;9.37;;;7.00;;
1775;SDS011;885;42.626;23.200;2023-07-08T09:34:05;6.70;;;6.10;;
1775;SDS011;885;42.626;23.200;2023-07-08T09:36:38;6.57;;;5.90;;
1775;SDS011;885;42.626;23.200;2023-07-08T09:39:10;8.17;;;6.47;;
1775;SDS011;885;42.626;23.200;2023-07-08T09:41:38;7.73;;;5.80;;
1775;SDS011;885;42.626;23.200;2023-07-08T09:44:13;7.73;;;5.90;;
1775;SDS011;885;42.626;23.200;2023-07-08T09:46:43;7.83;;;5.90;;
1775;SDS011;885;42.626;23.200;2023-07-08T09:49:17;6.30;;;5.30;;
1775;SDS011;885;42.626;23.200;2023-07-08T09:51:51;6.00;;;5.50;;
1775;SDS011;885;42.626;23.200;2023-07-08T09:54:19;6.50;;;5.53;;
1775;SDS011;885;42.626;23.200;2023-07-08T09:57:01;5.77;;;5.27;;
1775;SDS011;885;42.626;23.200;2023-07-08T09:59:37;5.17;;;4.67;;
1775;SDS011;885;42.626;23.200;2023-07-08T10:02:16;6.50;;;5.90;;
1775;SDS011;885;42.626;23.200;2023-07-08T10:04:57;5.67;;;5.03;;
1775;SDS011;885;42.626;23.200;2023-07-08T10:07:29;6.13;;;4.87;;
1775;SDS011;885;42.626;23.200;2023-07-08T10:09:58;5.23;;;4.73;;
1775;SDS011;885;42.626;23.200;2023-07-08T10:12:29;5.67;;;5.00;;
1775;SDS011;885;42.626;23.200;2023-07-08T10:14:59;7.30;;;4.60;;
1775;SDS011;885;42.626;23.200;2023-07-08T10:17:30;5.13;;;4.63;;
1775;SDS011;885;42.626;23.200;2023-07-08T10:19:56;5.67;;;5.17;;
1775;SDS011;885;42.626;23.200;2023-07-08T10:22:32;5.10;;;4.60;;
1775;SDS011;885;42.626;23.200;2023-07-08T10:25:16;4.50;;;4.10;;
1775;SDS011;885;42.626;23.200;2023-07-08T10:27:54;5.10;;;4.60;;
1775;SDS011;885;42.626;23.200;2023-07-08T10:30:27;4.43;;;4.03;;
1775;SDS011;885;42.626;23.200;2023-07-08T10:33:02;4.83;;;4.43;;
1775;SDS011;885;42.626;23.200;2023-07-08T10:35:45;5.47;;;5.00;;
1775;SDS011;885;42.626;23.200;2023-07-08T10:38:25;5.13;;;4.63;;
1775;SDS011;885;42.626;23.200;2023-07-08T10:41:04;4.93;;;4.53;;
1775;SDS011;885;42.626;23.200;2023-07-08T10:43:42;4.50;;;4.20;;
1775;SDS011;885;42.626;23.200;2023-07-08T10:46:20;4.60;;;4.20;;
1775;SDS011;885;42.626;23.200;2023-07-08T10:48:56;4.90;;;4.13;;
1775;SDS011;885;42.626;23.200;2023-07-08T10:51:35;5.13;;;4.33;;
1775;SDS011;885;42.626;23.200;2023-07-08T10:54:26;4.80;;;4.40;;
1775;SDS011;885;42.626;23.200;2023-07-08T10:57:10;4.83;;;4.33;;
1775;SDS011;885;42.626;23.200;2023-07-08T11:00:00;6.07;;;5.07;;
1775;SDS011;885;42.626;23.200;2023-07-08T11:02:49;5.00;;;4.60;;
1775;SDS011;885;42.626;23.200;2023-07-08T11:05:31;5.10;;;4.60;;
1775;SDS011;885;42.626;23.200;2023-07-08T11:08:07;5.30;;;3.83;;
1775;SDS011;885;42.626;23.200;2023-07-08T11:10:43;4.57;;;4.17;;
1775;SDS011;885;42.626;23.200;2023-07-08T11:13:16;5.57;;;5.07;;
1775;SDS011;885;42.626;23.200;2023-07-08T11:15:46;4.87;;;4.40;;
1775;SDS011;885;42.626;23.200;2023-07-08T11:18:19;4.83;;;4.43;;
1775;SDS011;885;42.626;23.200;2023-07-08T11:20:54;4.70;;;4.30;;
1775;SDS011;885;42.626;23.200;2023-07-08T11:23:31;4.60;;;4.10;;
1775;SDS011;885;42.626;23.200;2023-07-08T11:26:09;5.30;;;4.80;;
1775;SDS011;885;42.626;23.200;2023-07-08T11:28:42;4.67;;;4.27;;
1775;SDS011;885;42.626;23.200;2023-07-08T11:31:10;5.83;;;4.50;;
1775;SDS011;885;42.626;23.200;2023-07-08T11:33:37;4.30;;;3.90;;
1775;SDS011;885;42.626;23.200;2023-07-08T11:36:05;4.60;;;4.20;;
1775;SDS011;885;42.626;23.200;2023-07-08T11:38:33;8.43;;;4.10;;
1775;SDS011;885;42.626;23.200;2023-07-08T11:41:01;4.13;;;3.73;;
1775;SDS011;885;42.626;23.200;2023-07-08T11:43:35;4.43;;;4.03;;
1775;SDS011;885;42.626;23.200;2023-07-08T11:46:11;4.20;;;3.80;;
1775;SDS011;885;42.626;23.200;2023-07-08T11:48:42;4.70;;;4.07;;
1775;SDS011;885;42.626;23.200;2023-07-08T11:51:14;4.20;;;3.90;;
1775;SDS011;885;42.626;23.200;2023-07-08T11:53:48;5.30;;;4.80;;
1775;SDS011;885;42.626;23.200;2023-07-08T11:56:23;4.40;;;4.00;;
1775;SDS011;885;42.626;23.200;2023-07-08T12:01:46;4.47;;;4.07;;
1775;SDS011;885;42.626;23.200;2023-07-08T12:04:23;4.40;;;4.00;;
1775;SDS011;885;42.626;23.200;2023-07-08T12:07:01;4.33;;;3.93;;
1775;SDS011;885;42.626;23.200;2023-07-08T12:09:46;3.93;;;3.53;;
1775;SDS011;885;42.626;23.200;2023-07-08T12:12:17;4.93;;;4.43;;
1775;SDS011;885;42.626;23.200;2023-07-08T12:14:51;4.73;;;4.33;;
1775;SDS011;885;42.626;23.200;2023-07-08T12:17:26;4.33;;;3.93;;
1775;SDS011;885;42.626;23.200;2023-07-08T12:19:53;5.10;;;4.17;;
1775;SDS011;885;42.626;23.200;2023-07-08T12:22:24;8.87;;;4.13;;
1775;SDS011;885;42.626;23.200;2023-07-08T12:24:51;4.40;;;4.00;;
1775;SDS011;885;42.626;23.200;2023-07-08T12:27:17;3.97;;;3.60;;
1775;SDS011;885;42.626;23.200;2023-07-08T12:29:44;8.67;;;4.53;;
1775;SDS011;885;42.626;23.200;2023-07-08T12:32:13;4.23;;;3.83;;
1775;SDS011;885;42.626;23.200;2023-07-08T12:34:40;3.97;;;3.63;;
1775;SDS011;885;42.626;23.200;2023-07-08T12:37:09;4.80;;;3.97;;
1775;SDS011;885;42.626;23.200;2023-07-08T12:39:39;4.50;;;4.10;;
1775;SDS011;885;42.626;23.200;2023-07-08T12:42:08;4.07;;;3.53;;
1775;SDS011;885;42.626;23.200;2023-07-08T12:44:38;6.10;;;4.20;;
1775;SDS011;885;42.626;23.200;2023-07-08T12:47:09;5.00;;;4.10;;
1775;SDS011;885;42.626;23.200;2023-07-08T12:49:37;4.00;;;3.70;;
1775;SDS011;885;42.626;23.200;2023-07-08T12:52:04;4.17;;;3.77;;
1775;SDS011;885;42.626;23.200;2023-07-08T12:54:31;4.30;;;3.90;;
1775;SDS011;885;42.626;23.200;2023-07-08T12:56:59;6.60;;;3.73;;
1775;SDS011;885;42.626;23.200;2023-07-08T12:59:26;4.13;;;3.60;;
1775;SDS011;885;42.626;23.200;2023-07-08T13:01:53;3.67;;;3.37;;
1775;SDS011;885;42.626;23.200;2023-07-08T13:04:21;5.27;;;4.00;;
1775;SDS011;885;42.626;23.200;2023-07-08T13:06:50;4.27;;;3.60;;
1775;SDS011;885;42.626;23.200;2023-07-08T13:09:21;3.97;;;3.30;;
1775;SDS011;885;42.626;23.200;2023-07-08T13:12:01;3.90;;;3.50;;
1775;SDS011;885;42.626;23.200;2023-07-08T13:14:32;4.20;;;3.80;;
1775;SDS011;885;42.626;23.200;2023-07-08T13:16:59;4.03;;;3.60;;
1775;SDS011;885;42.626;23.200;2023-07-08T13:19:26;3.77;;;3.47;;
1775;SDS011;885;42.626;23.200;2023-07-08T13:21:55;4.00;;;3.60;;
1775;SDS011;885;42.626;23.200;2023-07-08T13:24:24;3.90;;;3.10;;
1775;SDS011;885;42.626;23.200;2023-07-08T13:26:51;4.20;;;3.10;;
1775;SDS011;885;42.626;23.200;2023-07-08T13:29:18;3.53;;;3.00;;
1775;SDS011;885;42.626;23.200;2023-07-08T13:31:47;4.90;;;3.40;;
1775;SDS011;885;42.626;23.200;2023-07-08T13:34:15;3.80;;;3.03;;
1775;SDS011;885;42.626;23.200;2023-07-08T13:36:45;3.43;;;3.00;;
1775;SDS011;885;42.626;23.200;2023-07-08T13:39:19;3.13;;;2.87;;
1775;SDS011;885;42.626;23.200;2023-07-08T13:41:48;3.37;;;2.97;;
1775;SDS011;885;42.626;23.200;2023-07-08T13:44:15;4.17;;;2.80;;
1775;SDS011;885;42.626;23.200;2023-07-08T13:46:44;6.90;;;3.50;;
1775;SDS011;885;42.626;23.200;2023-07-08T13:49:19;5.93;;;3.07;;
1775;SDS011;885;42.626;23.200;2023-07-08T13:51:48;3.37;;;3.00;;
1775;SDS011;885;42.626;23.200;2023-07-08T13:54:19;4.03;;;3.03;;
1775;SDS011;885;42.626;23.200;2023-07-08T13:56:47;6.80;;;3.60;;
1775;SDS011;885;42.626;23.200;2023-07-08T13:59:17;4.53;;;3.90;;
1775;SDS011;885;42.626;23.200;2023-07-08T14:01:45;3.50;;;3.20;;
1775;SDS011;885;42.626;23.200;2023-07-08T14:04:13;4.40;;;3.00;;
1775;SDS011;885;42.626;23.200;2023-07-08T14:06:42;3.73;;;3.27;;
1775;SDS011;885;42.626;23.200;2023-07-08T14:09:11;6.00;;;3.40;;
1775;SDS011;885;42.626;23.200;2023-07-08T14:11:40;4.80;;;3.53;;
1775;SDS011;885;42.626;23.200;2023-07-08T14:14:08;3.50;;;3.20;;
1775;SDS011;885;42.626;23.200;2023-07-08T14:16:36;4.10;;;3.03;;
1775;SDS011;885;42.626;23.200;2023-07-08T14:19:06;3.30;;;2.73;;
1775;SDS011;885;42.626;23.200;2023-07-08T14:21:38;3.97;;;3.30;;
1775;SDS011;885;42.626;23.200;2023-07-08T14:24:08;4.23;;;3.20;;
1775;SDS011;885;42.626;23.200;2023-07-08T14:26:37;4.93;;;3.30;;
1775;SDS011;885;42.626;23.200;2023-07-08T14:29:06;4.63;;;3.20;;
1775;SDS011;885;42.626;23.200;2023-07-08T14:31:33;3.57;;;3.13;;
1775;SDS011;885;42.626;23.200;2023-07-08T14:34:00;3.23;;;2.93;;
1775;SDS011;885;42.626;23.200;2023-07-08T14:36:30;4.13;;;3.73;;
1775;SDS011;885;42.626;23.200;2023-07-08T14:38:57;3.50;;;3.03;;
1775;SDS011;885;42.626;23.200;2023-07-08T14:41:25;3.60;;;3.30;;
1775;SDS011;885;42.626;23.200;2023-07-08T14:43:52;5.87;;;2.90;;
1775;SDS011;885;42.626;23.200;2023-07-08T14:46:21;3.53;;;3.20;;
1775;SDS011;885;42.626;23.200;2023-07-08T14:48:48;5.00;;;3.50;;
1775;SDS011;885;42.626;23.200;2023-07-08T14:51:15;5.07;;;4.57;;
1775;SDS011;885;42.626;23.200;2023-07-08T14:53:42;3.43;;;3.13;;
1775;SDS011;885;42.626;23.200;2023-07-08T14:56:12;4.13;;;2.83;;
1775;SDS011;885;42.626;23.200;2023-07-08T14:58:43;3.83;;;3.10;;
1775;SDS011;885;42.626;23.200;2023-07-08T15:01:13;6.03;;;3.87;;
1775;SDS011;885;42.626;23.200;2023-07-08T15:03:46;3.53;;;3.20;;
1775;SDS011;885;42.626;23.200;2023-07-08T15:06:13;3.50;;;3.20;;
1775;SDS011;885;42.626;23.200;2023-07-08T15:08:40;4.23;;;3.50;;
1775;SDS011;885;42.626;23.200;2023-07-08T15:11:08;3.80;;;3.23;;
1775;SDS011;885;42.626;23.200;2023-07-08T15:13:37;3.13;;;2.83;;
1775;SDS011;885;42.626;23.200;2023-07-08T15:16:04;5.27;;;3.37;;
1775;SDS011;885;42.626;23.200;2023-07-08T15:18:31;4.30;;;3.63;;